sensor_id;sensor_type;location;lat;lon;timestamp;P1;durP1;ratioP1;P2;durP2;ratioP2
72379;SDS011;60354;47.798;12.472;2023-02-16T00:01:31;14.10;;;8.70;;
72379;SDS011;60354;47.798;12.472;2023-02-16T00:03:58;13.35;;;8.23;;
72379;SDS011;60354;47.798;12.472;2023-02-16T00:06:25;12.55;;;7.78;;
72379;SDS011;60354;47.798;12.472;2023-02-16T00:08:52;13.65;;;7.82;;
72379;SDS011;60354;47.798;12.472;2023-02-16T00:11:25;12.35;;;7.55;;
72379;SDS011;60354;47.798;12.472;2023-02-16T00:14:13;13.13;;;7.30;;
72379;SDS011;60354;47.798;12.472;2023-02-16T00:16:39;14.63;;;8.02;;
72379;SDS011;60354;47.798;12.472;2023-02-16T00:21:58;13.75;;;7.35;;
72379;SDS011;60354;47.798;12.472;2023-02-16T00:24:25;12.95;;;7.50;;
72379;SDS011;60354;47.798;12.472;2023-02-16T00:26:52;11.00;;;6.50;;
72379;SDS011;60354;47.798;12.472;2023-02-16T00:31:51;12.20;;;7.03;;
72379;SDS011;60354;47.798;12.472;2023-02-16T00:36:48;10.90;;;6.55;;
72379;SDS011;60354;47.798;12.472;2023-02-16T00:39:13;11.95;;;6.93;;
72379;SDS011;60354;47.798;12.472;2023-02-16T00:41:39;11.77;;;7.10;;
72379;SDS011;60354;47.798;12.472;2023-02-16T00:47:02;13.82;;;7.25;;
72379;SDS011;60354;47.798;12.472;2023-02-16T00:49:34;11.80;;;6.70;;
72379;SDS011;60354;47.798;12.472;2023-02-16T00:52:00;11.68;;;6.70;;
72379;SDS011;60354;47.798;12.472;2023-02-16T00:54:26;14.00;;;6.90;;
72379;SDS011;60354;47.798;12.472;2023-02-16T00:56:51;11.02;;;6.75;;
72379;SDS011;60354;47.798;12.472;2023-02-16T00:59:18;12.88;;;7.28;;
72379;SDS011;60354;47.798;12.472;2023-02-16T01:01:46;12.50;;;6.47;;
72379;SDS011;60354;47.798;12.472;2023-02-16T01:04:17;12.40;;;6.97;;
72379;SDS011;60354;47.798;12.472;2023-02-16T01:06:45;13.38;;;7.03;;
72379;SDS011;60354;47.798;12.472;2023-02-16T01:09:29;11.80;;;6.65;;
72379;SDS011;60354;47.798;12.472;2023-02-16T01:12:14;13.88;;;6.80;;
72379;SDS011;60354;47.798;12.472;2023-02-16T01:14:41;13.05;;;7.00;;
72379;SDS011;60354;47.798;12.472;2023-02-16T01:17:09;10.02;;;6.28;;
72379;SDS011;60354;47.798;12.472;2023-02-16T01:19:35;11.35;;;6.85;;
72379;SDS011;60354;47.798;12.472;2023-02-16T01:22:00;13.85;;;7.03;;
72379;SDS011;60354;47.798;12.472;2023-02-16T01:24:26;9.70;;;5.93;;
72379;SDS011;60354;47.798;12.472;2023-02-16T01:26:52;10.95;;;6.00;;
72379;SDS011;60354;47.798;12.472;2023-02-16T01:29:18;10.35;;;5.82;;
72379;SDS011;60354;47.798;12.472;2023-02-16T01:31:47;9.43;;;5.25;;
72379;SDS011;60354;47.798;12.472;2023-02-16T01:34:13;8.77;;;5.47;;
72379;SDS011;60354;47.798;12.472;2023-02-16T01:36:42;10.07;;;5.72;;
72379;SDS011;60354;47.798;12.472;2023-02-16T01:39:11;32.72;;;13.20;;
72379;SDS011;60354;47.798;12.472;2023-02-16T01:47:03;10.10;;;6.07;;
72379;SDS011;60354;47.798;12.472;2023-02-16T01:49:36;11.27;;;5.88;;
72379;SDS011;60354;47.798;12.472;2023-02-16T01:52:04;9.80;;;6.05;;
72379;SDS011;60354;47.798;12.472;2023-02-16T01:54:51;9.98;;;6.20;;
72379;SDS011;60354;47.798;12.472;2023-02-16T02:00:14;9.63;;;5.80;;
72379;SDS011;60354;47.798;12.472;2023-02-16T02:02:47;9.52;;;5.68;;
72379;SDS011;60354;47.798;12.472;2023-02-16T02:05:33;8.65;;;5.75;;
72379;SDS011;60354;47.798;12.472;2023-02-16T02:08:02;9.57;;;5.63;;
72379;SDS011;60354;47.798;12.472;2023-02-16T02:13:26;9.82;;;6.30;;
72379;SDS011;60354;47.798;12.472;2023-02-16T02:15:59;10.07;;;6.05;;
72379;SDS011;60354;47.798;12.472;2023-02-16T02:18:26;9.52;;;6.07;;
72379;SDS011;60354;47.798;12.472;2023-02-16T02:21:01;9.80;;;6.47;;
72379;SDS011;60354;47.798;12.472;2023-02-16T02:27:15;8.70;;;5.60;;
72379;SDS011;60354;47.798;12.472;2023-02-16T02:37:49;11.80;;;6.68;;
72379;SDS011;60354;47.798;12.472;2023-02-16T02:45:41;10.63;;;5.82;;
72379;SDS011;60354;47.798;12.472;2023-02-16T02:48:11;7.72;;;5.43;;
72379;SDS011;60354;47.798;12.472;2023-02-16T02:50:41;11.18;;;6.45;;
72379;SDS011;60354;47.798;12.472;2023-02-16T02:53:26;9.82;;;6.07;;
72379;SDS011;60354;47.798;12.472;2023-02-16T02:55:51;8.95;;;5.90;;
72379;SDS011;60354;47.798;12.472;2023-02-16T02:58:35;9.30;;;6.43;;
72379;SDS011;60354;47.798;12.472;2023-02-16T03:01:22;10.32;;;6.32;;
72379;SDS011;60354;47.798;12.472;2023-02-16T03:03:51;11.15;;;6.05;;
72379;SDS011;60354;47.798;12.472;2023-02-16T03:06:31;10.57;;;6.18;;
72379;SDS011;60354;47.798;12.472;2023-02-16T03:09:09;11.45;;;6.60;;
72379;SDS011;60354;47.798;12.472;2023-02-16T03:11:38;10.27;;;5.85;;
72379;SDS011;60354;47.798;12.472;2023-02-16T03:14:36;9.88;;;5.97;;
72379;SDS011;60354;47.798;12.472;2023-02-16T03:17:16;8.50;;;5.60;;
72379;SDS011;60354;47.798;12.472;2023-02-16T03:20:04;8.57;;;5.35;;
72379;SDS011;60354;47.798;12.472;2023-02-16T03:22:50;7.95;;;5.07;;
72379;SDS011;60354;47.798;12.472;2023-02-16T03:25:35;8.38;;;5.38;;
72379;SDS011;60354;47.798;12.472;2023-02-16T03:28:22;10.70;;;5.68;;
72379;SDS011;60354;47.798;12.472;2023-02-16T03:31:09;10.68;;;5.75;;
72379;SDS011;60354;47.798;12.472;2023-02-16T03:33:38;8.85;;;5.43;;
72379;SDS011;60354;47.798;12.472;2023-02-16T03:36:04;7.88;;;5.07;;
72379;SDS011;60354;47.798;12.472;2023-02-16T03:38:31;8.80;;;5.47;;
72379;SDS011;60354;47.798;12.472;2023-02-16T03:40:56;8.20;;;5.05;;
72379;SDS011;60354;47.798;12.472;2023-02-16T03:43:26;8.68;;;5.32;;
72379;SDS011;60354;47.798;12.472;2023-02-16T03:45:53;8.02;;;4.97;;
72379;SDS011;60354;47.798;12.472;2023-02-16T03:48:19;8.63;;;5.30;;
72379;SDS011;60354;47.798;12.472;2023-02-16T03:50:45;7.82;;;4.63;;
72379;SDS011;60354;47.798;12.472;2023-02-16T03:53:11;7.88;;;5.05;;
72379;SDS011;60354;47.798;12.472;2023-02-16T03:55:40;9.43;;;5.18;;
72379;SDS011;60354;47.798;12.472;2023-02-16T03:58:10;7.95;;;5.07;;
72379;SDS011;60354;47.798;12.472;2023-02-16T04:00:37;9.90;;;5.47;;
72379;SDS011;60354;47.798;12.472;2023-02-16T04:03:03;9.65;;;5.22;;
72379;SDS011;60354;47.798;12.472;2023-02-16T04:05:29;9.65;;;5.63;;
72379;SDS011;60354;47.798;12.472;2023-02-16T04:07:55;9.43;;;5.88;;
72379;SDS011;60354;47.798;12.472;2023-02-16T04:10:21;10.75;;;5.93;;
72379;SDS011;60354;47.798;12.472;2023-02-16T04:12:47;8.75;;;5.40;;
72379;SDS011;60354;47.798;12.472;2023-02-16T04:15:14;9.25;;;5.80;;
72379;SDS011;60354;47.798;12.472;2023-02-16T04:17:42;9.45;;;5.90;;
72379;SDS011;60354;47.798;12.472;2023-02-16T04:20:09;10.68;;;6.45;;
72379;SDS011;60354;47.798;12.472;2023-02-16T04:22:37;9.05;;;5.45;;
72379;SDS011;60354;47.798;12.472;2023-02-16T04:25:03;8.82;;;5.43;;
72379;SDS011;60354;47.798;12.472;2023-02-16T04:27:28;9.05;;;5.25;;
72379;SDS011;60354;47.798;12.472;2023-02-16T04:29:54;8.45;;;5.05;;
72379;SDS011;60354;47.798;12.472;2023-02-16T04:32:19;9.88;;;5.40;;
72379;SDS011;60354;47.798;12.472;2023-02-16T04:34:45;8.20;;;5.25;;
72379;SDS011;60354;47.798;12.472;2023-02-16T04:37:10;10.88;;;6.05;;
72379;SDS011;60354;47.798;12.472;2023-02-16T04:39:36;13.32;;;6.50;;
72379;SDS011;60354;47.798;12.472;2023-02-16T04:42:02;11.07;;;6.35;;
72379;SDS011;60354;47.798;12.472;2023-02-16T04:44:28;9.00;;;5.75;;
72379;SDS011;60354;47.798;12.472;2023-02-16T04:46:53;8.73;;;5.80;;
72379;SDS011;60354;47.798;12.472;2023-02-16T04:51:50;8.25;;;5.45;;
72379;SDS011;60354;47.798;12.472;2023-02-16T04:54:16;10.43;;;5.85;;
72379;SDS011;60354;47.798;12.472;2023-02-16T04:56:45;9.85;;;6.05;;
72379;SDS011;60354;47.798;12.472;2023-02-16T04:59:11;8.95;;;5.55;;
72379;SDS011;60354;47.798;12.472;2023-02-16T05:01:37;8.88;;;5.88;;
72379;SDS011;60354;47.798;12.472;2023-02-16T05:04:03;8.93;;;6.07;;
72379;SDS011;60354;47.798;12.472;2023-02-16T05:06:28;8.50;;;5.40;;
72379;SDS011;60354;47.798;12.472;2023-02-16T05:08:54;9.23;;;5.30;;
72379;SDS011;60354;47.798;12.472;2023-02-16T05:11:19;10.40;;;5.85;;
72379;SDS011;60354;47.798;12.472;2023-02-16T05:14:03;10.25;;;6.45;;
72379;SDS011;60354;47.798;12.472;2023-02-16T05:16:47;9.15;;;5.85;;
72379;SDS011;60354;47.798;12.472;2023-02-16T05:19:13;12.75;;;7.50;;
72379;SDS011;60354;47.798;12.472;2023-02-16T05:21:39;10.35;;;6.50;;
72379;SDS011;60354;47.798;12.472;2023-02-16T05:24:05;10.52;;;6.75;;
72379;SDS011;60354;47.798;12.472;2023-02-16T05:26:35;9.50;;;5.50;;
72379;SDS011;60354;47.798;12.472;2023-02-16T05:29:03;9.65;;;6.18;;
72379;SDS011;60354;47.798;12.472;2023-02-16T05:31:29;13.30;;;6.70;;
72379;SDS011;60354;47.798;12.472;2023-02-16T05:33:55;8.68;;;5.60;;
72379;SDS011;60354;47.798;12.472;2023-02-16T05:36:21;9.93;;;5.90;;
72379;SDS011;60354;47.798;12.472;2023-02-16T05:38:47;11.73;;;5.80;;
72379;SDS011;60354;47.798;12.472;2023-02-16T05:41:12;10.32;;;6.50;;
72379;SDS011;60354;47.798;12.472;2023-02-16T05:44:06;13.02;;;6.65;;
72379;SDS011;60354;47.798;12.472;2023-02-16T05:46:33;9.48;;;6.35;;
72379;SDS011;60354;47.798;12.472;2023-02-16T05:49:00;12.60;;;7.53;;
72379;SDS011;60354;47.798;12.472;2023-02-16T05:51:26;19.40;;;8.52;;
72379;SDS011;60354;47.798;12.472;2023-02-16T05:53:52;12.55;;;6.57;;
72379;SDS011;60354;47.798;12.472;2023-02-16T05:56:18;11.70;;;6.43;;
72379;SDS011;60354;47.798;12.472;2023-02-16T05:58:44;32.92;;;11.75;;
72379;SDS011;60354;47.798;12.472;2023-02-16T06:01:10;21.60;;;9.32;;
72379;SDS011;60354;47.798;12.472;2023-02-16T06:03:36;18.08;;;8.18;;
72379;SDS011;60354;47.798;12.472;2023-02-16T06:06:02;16.52;;;8.20;;
72379;SDS011;60354;47.798;12.472;2023-02-16T06:08:28;12.05;;;6.65;;
72379;SDS011;60354;47.798;12.472;2023-02-16T06:10:54;10.27;;;6.00;;
72379;SDS011;60354;47.798;12.472;2023-02-16T06:13:20;10.45;;;6.25;;
72379;SDS011;60354;47.798;12.472;2023-02-16T06:15:49;9.90;;;5.78;;
72379;SDS011;60354;47.798;12.472;2023-02-16T06:18:16;10.80;;;6.00;;
72379;SDS011;60354;47.798;12.472;2023-02-16T06:20:42;10.05;;;6.10;;
72379;SDS011;60354;47.798;12.472;2023-02-16T06:23:09;10.68;;;6.25;;
72379;SDS011;60354;47.798;12.472;2023-02-16T06:25:36;9.93;;;5.93;;
72379;SDS011;60354;47.798;12.472;2023-02-16T06:28:02;10.63;;;6.53;;
72379;SDS011;60354;47.798;12.472;2023-02-16T06:30:27;10.63;;;5.88;;
72379;SDS011;60354;47.798;12.472;2023-02-16T06:32:53;9.00;;;5.20;;
72379;SDS011;60354;47.798;12.472;2023-02-16T06:35:19;11.07;;;4.70;;
72379;SDS011;60354;47.798;12.472;2023-02-16T06:37:44;9.90;;;5.20;;
72379;SDS011;60354;47.798;12.472;2023-02-16T06:40:10;36.60;;;15.00;;
72379;SDS011;60354;47.798;12.472;2023-02-16T06:42:38;19.83;;;8.38;;
72379;SDS011;60354;47.798;12.472;2023-02-16T06:45:05;19.38;;;9.93;;
72379;SDS011;60354;47.798;12.472;2023-02-16T06:47:31;19.85;;;10.32;;
72379;SDS011;60354;47.798;12.472;2023-02-16T06:49:57;18.02;;;9.30;;
72379;SDS011;60354;47.798;12.472;2023-02-16T06:52:22;10.82;;;5.63;;
72379;SDS011;60354;47.798;12.472;2023-02-16T06:54:48;11.18;;;5.38;;
72379;SDS011;60354;47.798;12.472;2023-02-16T06:57:13;9.15;;;3.83;;
72379;SDS011;60354;47.798;12.472;2023-02-16T06:59:39;5.57;;;2.67;;
72379;SDS011;60354;47.798;12.472;2023-02-16T07:02:04;4.68;;;2.10;;
72379;SDS011;60354;47.798;12.472;2023-02-16T07:04:30;5.10;;;2.10;;
72379;SDS011;60354;47.798;12.472;2023-02-16T07:06:55;4.45;;;2.63;;
72379;SDS011;60354;47.798;12.472;2023-02-16T07:09:21;3.85;;;1.98;;
72379;SDS011;60354;47.798;12.472;2023-02-16T07:11:46;4.60;;;2.38;;
72379;SDS011;60354;47.798;12.472;2023-02-16T07:14:12;5.32;;;2.30;;
72379;SDS011;60354;47.798;12.472;2023-02-16T07:16:38;4.32;;;2.03;;
72379;SDS011;60354;47.798;12.472;2023-02-16T07:19:03;3.55;;;2.22;;
72379;SDS011;60354;47.798;12.472;2023-02-16T07:21:29;4.68;;;2.17;;
72379;SDS011;60354;47.798;12.472;2023-02-16T07:23:55;5.93;;;2.67;;
72379;SDS011;60354;47.798;12.472;2023-02-16T07:26:20;5.40;;;2.92;;
72379;SDS011;60354;47.798;12.472;2023-02-16T07:28:46;5.53;;;2.20;;
72379;SDS011;60354;47.798;12.472;2023-02-16T07:31:12;3.20;;;1.90;;
72379;SDS011;60354;47.798;12.472;2023-02-16T07:33:39;7.40;;;1.95;;
72379;SDS011;60354;47.798;12.472;2023-02-16T07:36:06;5.30;;;2.20;;
72379;SDS011;60354;47.798;12.472;2023-02-16T07:38:32;4.30;;;2.20;;
72379;SDS011;60354;47.798;12.472;2023-02-16T07:40:58;4.07;;;2.33;;
72379;SDS011;60354;47.798;12.472;2023-02-16T07:43:24;8.50;;;3.80;;
72379;SDS011;60354;47.798;12.472;2023-02-16T07:45:49;7.22;;;2.22;;
72379;SDS011;60354;47.798;12.472;2023-02-16T07:48:16;4.28;;;2.10;;
72379;SDS011;60354;47.798;12.472;2023-02-16T07:50:41;3.40;;;1.83;;
72379;SDS011;60354;47.798;12.472;2023-02-16T07:53:07;4.70;;;2.30;;
72379;SDS011;60354;47.798;12.472;2023-02-16T07:55:37;5.68;;;2.08;;
72379;SDS011;60354;47.798;12.472;2023-02-16T07:58:06;3.97;;;2.00;;
72379;SDS011;60354;47.798;12.472;2023-02-16T08:00:33;5.70;;;2.00;;
72379;SDS011;60354;47.798;12.472;2023-02-16T08:02:59;4.22;;;2.00;;
72379;SDS011;60354;47.798;12.472;2023-02-16T08:05:24;4.43;;;2.20;;
72379;SDS011;60354;47.798;12.472;2023-02-16T08:07:49;3.53;;;2.15;;
72379;SDS011;60354;47.798;12.472;2023-02-16T08:10:15;3.40;;;1.98;;
72379;SDS011;60354;47.798;12.472;2023-02-16T08:12:41;5.63;;;2.20;;
72379;SDS011;60354;47.798;12.472;2023-02-16T08:15:07;3.72;;;2.28;;
72379;SDS011;60354;47.798;12.472;2023-02-16T08:17:34;4.63;;;2.20;;
72379;SDS011;60354;47.798;12.472;2023-02-16T08:19:59;4.82;;;2.20;;
72379;SDS011;60354;47.798;12.472;2023-02-16T08:22:25;4.15;;;2.13;;
72379;SDS011;60354;47.798;12.472;2023-02-16T08:24:50;2.85;;;1.83;;
72379;SDS011;60354;47.798;12.472;2023-02-16T08:27:16;4.93;;;2.20;;
72379;SDS011;60354;47.798;12.472;2023-02-16T08:29:41;3.63;;;2.17;;
72379;SDS011;60354;47.798;12.472;2023-02-16T08:32:10;2.85;;;1.80;;
72379;SDS011;60354;47.798;12.472;2023-02-16T08:34:35;5.68;;;2.40;;
72379;SDS011;60354;47.798;12.472;2023-02-16T08:37:02;4.00;;;1.95;;
72379;SDS011;60354;47.798;12.472;2023-02-16T08:39:29;6.43;;;2.00;;
72379;SDS011;60354;47.798;12.472;2023-02-16T08:41:57;3.65;;;2.20;;
72379;SDS011;60354;47.798;12.472;2023-02-16T08:44:24;4.38;;;2.20;;
72379;SDS011;60354;47.798;12.472;2023-02-16T08:46:50;3.58;;;1.95;;
72379;SDS011;60354;47.798;12.472;2023-02-16T08:49:18;7.78;;;2.10;;
72379;SDS011;60354;47.798;12.472;2023-02-16T08:51:50;3.72;;;2.00;;
72379;SDS011;60354;47.798;12.472;2023-02-16T08:54:26;3.72;;;2.13;;
72379;SDS011;60354;47.798;12.472;2023-02-16T08:56:54;4.68;;;2.03;;
72379;SDS011;60354;47.798;12.472;2023-02-16T08:59:21;3.95;;;1.98;;
72379;SDS011;60354;47.798;12.472;2023-02-16T09:01:48;3.63;;;2.00;;
72379;SDS011;60354;47.798;12.472;2023-02-16T09:04:15;6.07;;;2.10;;
72379;SDS011;60354;47.798;12.472;2023-02-16T09:06:42;5.32;;;2.30;;
72379;SDS011;60354;47.798;12.472;2023-02-16T09:09:09;7.05;;;2.28;;
72379;SDS011;60354;47.798;12.472;2023-02-16T09:11:35;5.80;;;2.10;;
72379;SDS011;60354;47.798;12.472;2023-02-16T09:14:01;8.45;;;1.77;;
72379;SDS011;60354;47.798;12.472;2023-02-16T09:16:28;5.53;;;1.73;;
72379;SDS011;60354;47.798;12.472;2023-02-16T09:18:59;12.90;;;2.42;;
72379;SDS011;60354;47.798;12.472;2023-02-16T09:21:28;3.13;;;1.65;;
72379;SDS011;60354;47.798;12.472;2023-02-16T09:23:58;2.97;;;1.70;;
72379;SDS011;60354;47.798;12.472;2023-02-16T09:26:26;6.28;;;1.98;;
72379;SDS011;60354;47.798;12.472;2023-02-16T09:28:54;4.20;;;1.90;;
72379;SDS011;60354;47.798;12.472;2023-02-16T09:31:24;3.97;;;1.80;;
72379;SDS011;60354;47.798;12.472;2023-02-16T09:33:53;4.97;;;1.73;;
72379;SDS011;60354;47.798;12.472;2023-02-16T09:36:21;4.63;;;1.88;;
72379;SDS011;60354;47.798;12.472;2023-02-16T09:38:47;6.93;;;2.05;;
72379;SDS011;60354;47.798;12.472;2023-02-16T09:41:20;12.93;;;2.15;;
72379;SDS011;60354;47.798;12.472;2023-02-16T09:43:57;3.63;;;2.15;;
72379;SDS011;60354;47.798;12.472;2023-02-16T09:46:35;18.58;;;2.30;;
72379;SDS011;60354;47.798;12.472;2023-02-16T09:49:02;6.55;;;2.00;;
72379;SDS011;60354;47.798;12.472;2023-02-16T09:51:33;9.98;;;2.53;;
72379;SDS011;60354;47.798;12.472;2023-02-16T09:57:00;8.80;;;2.10;;
72379;SDS011;60354;47.798;12.472;2023-02-16T10:10:26;4.75;;;2.10;;
72379;SDS011;60354;47.798;12.472;2023-02-16T10:13:01;3.53;;;2.00;;
72379;SDS011;60354;47.798;12.472;2023-02-16T10:15:33;6.47;;;2.22;;
72379;SDS011;60354;47.798;12.472;2023-02-16T10:18:13;6.80;;;2.30;;
72379;SDS011;60354;47.798;12.472;2023-02-16T10:20:45;7.03;;;2.15;;
72379;SDS011;60354;47.798;12.472;2023-02-16T10:23:38;8.98;;;2.50;;
72379;SDS011;60354;47.798;12.472;2023-02-16T10:28:57;14.10;;;2.95;;
72379;SDS011;60354;47.798;12.472;2023-02-16T10:39:21;10.20;;;2.65;;
72379;SDS011;60354;47.798;12.472;2023-02-16T10:41:59;9.30;;;2.55;;
72379;SDS011;60354;47.798;12.472;2023-02-16T10:44:47;8.02;;;2.45;;
72379;SDS011;60354;47.798;12.472;2023-02-16T10:47:27;4.45;;;2.50;;
72379;SDS011;60354;47.798;12.472;2023-02-16T10:49:59;7.82;;;3.70;;
72379;SDS011;60354;47.798;12.472;2023-02-16T10:52:26;8.90;;;2.90;;
72379;SDS011;60354;47.798;12.472;2023-02-16T10:54:56;8.60;;;3.38;;
72379;SDS011;60354;47.798;12.472;2023-02-16T10:57:26;7.03;;;3.10;;
72379;SDS011;60354;47.798;12.472;2023-02-16T10:59:54;5.13;;;2.92;;
72379;SDS011;60354;47.798;12.472;2023-02-16T11:02:26;5.03;;;2.90;;
72379;SDS011;60354;47.798;12.472;2023-02-16T11:05:00;6.88;;;3.22;;
72379;SDS011;60354;47.798;12.472;2023-02-16T11:07:28;8.27;;;3.22;;
72379;SDS011;60354;47.798;12.472;2023-02-16T11:09:56;13.25;;;5.40;;
72379;SDS011;60354;47.798;12.472;2023-02-16T11:14:53;7.97;;;4.28;;
72379;SDS011;60354;47.798;12.472;2023-02-16T11:17:22;8.18;;;3.35;;
72379;SDS011;60354;47.798;12.472;2023-02-16T11:19:53;8.20;;;3.60;;
72379;SDS011;60354;47.798;12.472;2023-02-16T11:24:55;7.80;;;3.80;;
72379;SDS011;60354;47.798;12.472;2023-02-16T11:27:23;7.35;;;3.85;;
72379;SDS011;60354;47.798;12.472;2023-02-16T11:29:50;10.07;;;4.07;;
72379;SDS011;60354;47.798;12.472;2023-02-16T11:32:16;12.52;;;4.82;;
72379;SDS011;60354;47.798;12.472;2023-02-16T11:34:50;13.15;;;4.68;;
72379;SDS011;60354;47.798;12.472;2023-02-16T11:39:51;9.27;;;4.82;;
72379;SDS011;60354;47.798;12.472;2023-02-16T11:45:04;18.48;;;5.50;;
72379;SDS011;60354;47.798;12.472;2023-02-16T11:47:38;13.48;;;5.35;;
72379;SDS011;60354;47.798;12.472;2023-02-16T11:50:12;8.90;;;4.70;;
72379;SDS011;60354;47.798;12.472;2023-02-16T11:52:41;9.25;;;4.53;;
72379;SDS011;60354;47.798;12.472;2023-02-16T11:55:17;11.10;;;5.05;;
72379;SDS011;60354;47.798;12.472;2023-02-16T11:57:45;9.27;;;5.53;;
72379;SDS011;60354;47.798;12.472;2023-02-16T12:00:18;10.00;;;4.43;;
72379;SDS011;60354;47.798;12.472;2023-02-16T12:21:18;9.15;;;4.32;;
72379;SDS011;60354;47.798;12.472;2023-02-16T12:45:48;10.13;;;5.05;;
72379;SDS011;60354;47.798;12.472;2023-02-16T12:50:51;8.38;;;4.28;;
72379;SDS011;60354;47.798;12.472;2023-02-16T12:53:21;9.95;;;4.35;;
72379;SDS011;60354;47.798;12.472;2023-02-16T12:55:59;9.65;;;4.70;;
72379;SDS011;60354;47.798;12.472;2023-02-16T12:58:29;9.65;;;4.93;;
72379;SDS011;60354;47.798;12.472;2023-02-16T13:01:00;8.45;;;4.40;;
72379;SDS011;60354;47.798;12.472;2023-02-16T13:03:52;9.45;;;4.25;;
72379;SDS011;60354;47.798;12.472;2023-02-16T13:12:49;12.73;;;6.78;;
72379;SDS011;60354;47.798;12.472;2023-02-16T13:15:15;11.90;;;6.13;;
72379;SDS011;60354;47.798;12.472;2023-02-16T13:18:04;10.40;;;5.47;;
72379;SDS011;60354;47.798;12.472;2023-02-16T13:20:47;8.55;;;4.95;;
72379;SDS011;60354;47.798;12.472;2023-02-16T13:23:20;14.48;;;4.95;;
72379;SDS011;60354;47.798;12.472;2023-02-16T13:44:59;9.57;;;5.70;;
72379;SDS011;60354;47.798;12.472;2023-02-16T13:47:29;14.57;;;6.70;;
72379;SDS011;60354;47.798;12.472;2023-02-16T13:50:01;14.30;;;5.90;;
72379;SDS011;60354;47.798;12.472;2023-02-16T13:52:40;9.90;;;4.80;;
72379;SDS011;60354;47.798;12.472;2023-02-16T13:55:20;8.68;;;4.18;;
72379;SDS011;60354;47.798;12.472;2023-02-16T13:58:03;9.02;;;3.80;;
72379;SDS011;60354;47.798;12.472;2023-02-16T14:00:42;7.30;;;3.83;;
72379;SDS011;60354;47.798;12.472;2023-02-16T14:05:42;6.60;;;3.80;;
72379;SDS011;60354;47.798;12.472;2023-02-16T14:13:18;8.02;;;3.92;;
72379;SDS011;60354;47.798;12.472;2023-02-16T14:15:48;8.55;;;4.00;;
72379;SDS011;60354;47.798;12.472;2023-02-16T14:18:59;7.93;;;4.10;;
72379;SDS011;60354;47.798;12.472;2023-02-16T14:21:29;8.18;;;4.00;;
72379;SDS011;60354;47.798;12.472;2023-02-16T14:24:00;7.25;;;3.95;;
72379;SDS011;60354;47.798;12.472;2023-02-16T14:26:27;7.35;;;4.13;;
72379;SDS011;60354;47.798;12.472;2023-02-16T14:31:25;7.18;;;3.97;;
72379;SDS011;60354;47.798;12.472;2023-02-16T14:36:27;7.55;;;3.90;;
72379;SDS011;60354;47.798;12.472;2023-02-16T14:38:54;9.20;;;3.83;;
72379;SDS011;60354;47.798;12.472;2023-02-16T14:41:28;10.23;;;4.20;;
72379;SDS011;60354;47.798;12.472;2023-02-16T15:00:09;8.75;;;4.13;;
72379;SDS011;60354;47.798;12.472;2023-02-16T15:02:56;9.20;;;4.53;;
72379;SDS011;60354;47.798;12.472;2023-02-16T15:05:29;10.40;;;4.32;;
72379;SDS011;60354;47.798;12.472;2023-02-16T15:08:01;10.35;;;4.10;;
72379;SDS011;60354;47.798;12.472;2023-02-16T15:10:28;8.95;;;4.10;;
72379;SDS011;60354;47.798;12.472;2023-02-16T15:12:55;10.25;;;4.50;;
72379;SDS011;60354;47.798;12.472;2023-02-16T15:15:24;9.63;;;4.32;;
72379;SDS011;60354;47.798;12.472;2023-02-16T15:18:03;7.70;;;4.15;;
72379;SDS011;60354;47.798;12.472;2023-02-16T15:20:35;8.45;;;4.43;;
72379;SDS011;60354;47.798;12.472;2023-02-16T15:23:03;9.18;;;4.53;;
72379;SDS011;60354;47.798;12.472;2023-02-16T15:25:33;8.30;;;4.22;;
72379;SDS011;60354;47.798;12.472;2023-02-16T15:27:59;9.35;;;4.32;;
72379;SDS011;60354;47.798;12.472;2023-02-16T15:30:35;10.85;;;4.40;;
72379;SDS011;60354;47.798;12.472;2023-02-16T15:35:39;19.88;;;10.23;;
72379;SDS011;60354;47.798;12.472;2023-02-16T15:38:08;11.38;;;6.15;;
72379;SDS011;60354;47.798;12.472;2023-02-16T15:40:44;11.93;;;5.40;;
72379;SDS011;60354;47.798;12.472;2023-02-16T15:43:17;11.25;;;5.00;;
72379;SDS011;60354;47.798;12.472;2023-02-16T15:45:55;9.82;;;4.80;;
72379;SDS011;60354;47.798;12.472;2023-02-16T15:53:52;12.68;;;6.35;;
72379;SDS011;60354;47.798;12.472;2023-02-16T15:59:18;14.18;;;7.10;;
72379;SDS011;60354;47.798;12.472;2023-02-16T16:01:59;15.85;;;5.35;;
72379;SDS011;60354;47.798;12.472;2023-02-16T16:04:25;9.30;;;4.47;;
72379;SDS011;60354;47.798;12.472;2023-02-16T16:06:51;8.93;;;4.50;;
72379;SDS011;60354;47.798;12.472;2023-02-16T16:09:25;10.43;;;4.07;;
72379;SDS011;60354;47.798;12.472;2023-02-16T16:11:55;14.18;;;4.10;;
72379;SDS011;60354;47.798;12.472;2023-02-16T16:14:22;14.35;;;4.43;;
72379;SDS011;60354;47.798;12.472;2023-02-16T16:16:49;9.10;;;4.10;;
72379;SDS011;60354;47.798;12.472;2023-02-16T16:19:32;8.85;;;3.70;;
72379;SDS011;60354;47.798;12.472;2023-02-16T16:21:59;8.85;;;4.60;;
72379;SDS011;60354;47.798;12.472;2023-02-16T16:24:33;11.65;;;4.78;;
72379;SDS011;60354;47.798;12.472;2023-02-16T16:27:06;8.43;;;4.30;;
72379;SDS011;60354;47.798;12.472;2023-02-16T16:29:39;9.50;;;4.32;;
72379;SDS011;60354;47.798;12.472;2023-02-16T16:32:23;10.05;;;4.57;;
72379;SDS011;60354;47.798;12.472;2023-02-16T16:34:51;13.77;;;5.03;;
72379;SDS011;60354;47.798;12.472;2023-02-16T16:37:30;9.75;;;4.68;;
72379;SDS011;60354;47.798;12.472;2023-02-16T16:42:29;8.27;;;4.20;;
72379;SDS011;60354;47.798;12.472;2023-02-16T16:47:28;7.50;;;3.80;;
72379;SDS011;60354;47.798;12.472;2023-02-16T16:52:50;7.47;;;4.40;;
72379;SDS011;60354;47.798;12.472;2023-02-16T16:58:05;7.85;;;4.50;;
72379;SDS011;60354;47.798;12.472;2023-02-16T17:00:33;13.60;;;5.47;;
72379;SDS011;60354;47.798;12.472;2023-02-16T17:03:02;11.10;;;5.38;;
72379;SDS011;60354;47.798;12.472;2023-02-16T17:05:30;9.95;;;4.93;;
72379;SDS011;60354;47.798;12.472;2023-02-16T17:07:55;7.97;;;4.53;;
72379;SDS011;60354;47.798;12.472;2023-02-16T17:10:21;6.93;;;4.20;;
72379;SDS011;60354;47.798;12.472;2023-02-16T17:12:52;12.65;;;5.20;;
72379;SDS011;60354;47.798;12.472;2023-02-16T17:15:26;7.35;;;4.57;;
72379;SDS011;60354;47.798;12.472;2023-02-16T17:17:55;14.10;;;4.35;;
72379;SDS011;60354;47.798;12.472;2023-02-16T17:20:21;9.77;;;4.70;;
72379;SDS011;60354;47.798;12.472;2023-02-16T17:22:47;8.60;;;4.50;;
72379;SDS011;60354;47.798;12.472;2023-02-16T17:25:12;7.93;;;4.40;;
72379;SDS011;60354;47.798;12.472;2023-02-16T17:27:38;13.68;;;5.10;;
72379;SDS011;60354;47.798;12.472;2023-02-16T17:30:03;9.77;;;5.20;;
72379;SDS011;60354;47.798;12.472;2023-02-16T17:32:30;12.52;;;5.18;;
72379;SDS011;60354;47.798;12.472;2023-02-16T17:34:55;11.32;;;5.85;;
72379;SDS011;60354;47.798;12.472;2023-02-16T17:42:19;12.55;;;6.90;;
72379;SDS011;60354;47.798;12.472;2023-02-16T17:44:45;18.92;;;9.50;;
72379;SDS011;60354;47.798;12.472;2023-02-16T17:47:14;14.43;;;7.65;;
72379;SDS011;60354;47.798;12.472;2023-02-16T17:49:41;11.85;;;4.95;;
72379;SDS011;60354;47.798;12.472;2023-02-16T17:52:10;9.07;;;4.32;;
72379;SDS011;60354;47.798;12.472;2023-02-16T17:54:36;10.38;;;4.68;;
72379;SDS011;60354;47.798;12.472;2023-02-16T17:57:02;9.13;;;4.75;;
72379;SDS011;60354;47.798;12.472;2023-02-16T17:59:27;12.25;;;5.13;;
72379;SDS011;60354;47.798;12.472;2023-02-16T18:01:54;9.00;;;4.78;;
72379;SDS011;60354;47.798;12.472;2023-02-16T18:04:20;9.55;;;4.80;;